sensor_id;sensor_type;location;lat;lon;timestamp;pressure;altitude;pressure_sealevel;temperature;humidity
11676;BME280;5894;42.768;23.404;2024-03-02T00:01:06;95106.31;;;9.12;100.00
11676;BME280;5894;42.768;23.404;2024-03-02T00:03:33;95096.84;;;9.03;100.00
11676;BME280;5894;42.768;23.404;2024-03-02T00:06:00;95090.44;;;8.95;100.00
11676;BME280;5894;42.768;23.404;2024-03-02T00:08:27;95117.09;;;9.02;100.00
11676;BME280;5894;42.768;23.404;2024-03-02T00:10:57;95111.00;;;8.93;100.00
11676;BME280;5894;42.768;23.404;2024-03-02T00:13:25;95118.75;;;8.98;100.00
11676;BME280;5894;42.768;23.404;2024-03-02T00:15:55;95117.22;;;8.97;100.00
11676;BME280;5894;42.768;23.404;2024-03-02T00:18:26;95038.19;;;8.40;100.00
11676;BME280;5894;42.768;23.404;2024-03-02T00:20:54;95107.91;;;8.91;100.00
11676;BME280;5894;42.768;23.404;2024-03-02T00:23:22;95109.47;;;8.92;100.00
11676;BME280;5894;42.768;23.404;2024-03-02T00:25:51;95112.72;;;8.98;100.00
11676;BME280;5894;42.768;23.404;2024-03-02T00:28:20;95104.63;;;8.86;100.00
11676;BME280;5894;42.768;23.404;2024-03-02T00:31:10;95115.66;;;8.96;100.00
11676;BME280;5894;42.768;23.404;2024-03-02T00:33:41;95109.84;;;9.08;100.00
11676;BME280;5894;42.768;23.404;2024-03-02T00:36:10;95093.50;;;8.89;100.00
11676;BME280;5894;42.768;23.404;2024-03-02T00:38:44;95097.97;;;8.88;100.00
11676;BME280;5894;42.768;23.404;2024-03-02T00:41:16;95103.09;;;8.93;100.00
11676;BME280;5894;42.768;23.404;2024-03-02T00:43:47;95103.56;;;8.95;100.00
11676;BME280;5894;42.768;23.404;2024-03-02T00:46:19;95085.03;;;8.92;100.00
11676;BME280;5894;42.768;23.404;2024-03-02T00:48:57;95090.44;;;8.95;100.00
11676;BME280;5894;42.768;23.404;2024-03-02T00:51:25;95094.31;;;8.98;100.00
11676;BME280;5894;42.768;23.404;2024-03-02T00:53:55;95096.63;;;8.91;100.00
11676;BME280;5894;42.768;23.404;2024-03-02T00:56:23;95099.09;;;8.96;100.00
11676;BME280;5894;42.768;23.404;2024-03-02T00:58:50;95094.94;;;9.03;100.00
11676;BME280;5894;42.768;23.404;2024-03-02T01:01:19;95083.19;;;9.01;100.00
11676;BME280;5894;42.768;23.404;2024-03-02T01:03:47;95061.28;;;8.83;100.00
11676;BME280;5894;42.768;23.404;2024-03-02T01:06:14;95062.84;;;8.84;100.00
11676;BME280;5894;42.768;23.404;2024-03-02T01:08:42;95082.72;;;8.99;100.00
11676;BME280;5894;42.768;23.404;2024-03-02T01:11:09;95080.97;;;8.94;100.00
11676;BME280;5894;42.768;23.404;2024-03-02T01:13:36;95083.28;;;8.87;100.00
11676;BME280;5894;42.768;23.404;2024-03-02T01:16:04;95083.53;;;8.77;100.00
11676;BME280;5894;42.768;23.404;2024-03-02T01:18:32;95094.78;;;8.69;100.00
11676;BME280;5894;42.768;23.404;2024-03-02T01:20:59;95096.69;;;8.77;100.00
11676;BME280;5894;42.768;23.404;2024-03-02T01:23:27;95084.53;;;8.90;100.00
11676;BME280;5894;42.768;23.404;2024-03-02T01:25:54;95083.75;;;8.89;100.00
11676;BME280;5894;42.768;23.404;2024-03-02T01:28:21;95080.09;;;8.99;100.00
11676;BME280;5894;42.768;23.404;2024-03-02T01:30:48;95080.41;;;8.97;100.00
11676;BME280;5894;42.768;23.404;2024-03-02T01:33:15;95074.09;;;9.07;100.00
11676;BME280;5894;42.768;23.404;2024-03-02T01:35:44;95073.50;;;9.10;100.00
11676;BME280;5894;42.768;23.404;2024-03-02T01:38:11;95068.56;;;9.17;100.00
11676;BME280;5894;42.768;23.404;2024-03-02T01:40:38;95071.06;;;9.22;100.00
11676;BME280;5894;42.768;23.404;2024-03-02T01:43:06;95070.00;;;9.23;100.00
11676;BME280;5894;42.768;23.404;2024-03-02T01:45:33;95064.09;;;9.26;100.00
11676;BME280;5894;42.768;23.404;2024-03-02T01:48:01;95064.91;;;9.35;100.00
11676;BME280;5894;42.768;23.404;2024-03-02T01:50:29;95061.38;;;9.40;100.00
11676;BME280;5894;42.768;23.404;2024-03-02T01:52:58;95059.19;;;9.33;100.00
11676;BME280;5894;42.768;23.404;2024-03-02T01:55:26;95045.97;;;9.16;100.00
11676;BME280;5894;42.768;23.404;2024-03-02T01:57:54;95052.56;;;9.05;100.00
11676;BME280;5894;42.768;23.404;2024-03-02T02:00:22;95010.00;;;8.63;100.00
11676;BME280;5894;42.768;23.404;2024-03-02T02:02:50;95052.75;;;8.77;100.00
11676;BME280;5894;42.768;23.404;2024-03-02T02:05:17;95049.31;;;8.68;100.00
11676;BME280;5894;42.768;23.404;2024-03-02T02:07:44;95050.25;;;8.72;100.00
11676;BME280;5894;42.768;23.404;2024-03-02T02:10:13;95047.47;;;8.69;100.00
11676;BME280;5894;42.768;23.404;2024-03-02T02:12:40;95052.84;;;8.64;100.00
11676;BME280;5894;42.768;23.404;2024-03-02T02:15:24;95050.38;;;8.67;100.00
11676;BME280;5894;42.768;23.404;2024-03-02T02:17:52;95057.53;;;8.75;100.00
11676;BME280;5894;42.768;23.404;2024-03-02T02:20:19;95059.75;;;8.82;100.00
11676;BME280;5894;42.768;23.404;2024-03-02T02:22:58;95052.50;;;8.88;100.00
11676;BME280;5894;42.768;23.404;2024-03-02T02:25:25;95045.69;;;8.87;100.00
11676;BME280;5894;42.768;23.404;2024-03-02T02:27:53;95049.56;;;8.89;100.00
11676;BME280;5894;42.768;23.404;2024-03-02T02:30:20;95047.72;;;8.90;100.00
11676;BME280;5894;42.768;23.404;2024-03-02T02:32:47;95053.28;;;8.88;100.00
11676;BME280;5894;42.768;23.404;2024-03-02T02:35:14;95054.41;;;8.96;100.00
11676;BME280;5894;42.768;23.404;2024-03-02T02:37:41;95052.53;;;8.96;100.00
11676;BME280;5894;42.768;23.404;2024-03-02T02:40:11;95049.09;;;8.87;100.00
11676;BME280;5894;42.768;23.404;2024-03-02T02:42:39;95054.63;;;8.77;100.00
11676;BME280;5894;42.768;23.404;2024-03-02T02:45:06;95048.25;;;8.69;100.00
11676;BME280;5894;42.768;23.404;2024-03-02T02:47:33;95068.13;;;8.62;100.00
11676;BME280;5894;42.768;23.404;2024-03-02T02:50:02;95051.72;;;8.56;100.00
11676;BME280;5894;42.768;23.404;2024-03-02T02:52:33;95053.22;;;8.49;100.00
11676;BME280;5894;42.768;23.404;2024-03-02T02:55:03;95054.25;;;8.39;100.00
11676;BME280;5894;42.768;23.404;2024-03-02T02:57:32;94981.88;;;7.88;100.00
11676;BME280;5894;42.768;23.404;2024-03-02T03:00:05;95041.56;;;8.19;100.00
11676;BME280;5894;42.768;23.404;2024-03-02T03:02:37;95046.19;;;8.22;100.00
11676;BME280;5894;42.768;23.404;2024-03-02T03:05:05;95051.38;;;8.13;100.00
11676;BME280;5894;42.768;23.404;2024-03-02T03:07:33;95046.72;;;8.10;100.00
11676;BME280;5894;42.768;23.404;2024-03-02T03:10:00;95049.81;;;8.12;100.00
11676;BME280;5894;42.768;23.404;2024-03-02T03:12:29;95055.56;;;8.14;100.00
11676;BME280;5894;42.768;23.404;2024-03-02T03:14:58;95047.97;;;8.13;100.00
11676;BME280;5894;42.768;23.404;2024-03-02T03:17:26;95051.75;;;8.20;100.00
11676;BME280;5894;42.768;23.404;2024-03-02T03:19:53;95050.06;;;8.24;100.00
11676;BME280;5894;42.768;23.404;2024-03-02T03:22:20;95050.28;;;8.28;100.00
11676;BME280;5894;42.768;23.404;2024-03-02T03:24:47;95047.94;;;8.26;100.00
11676;BME280;5894;42.768;23.404;2024-03-02T03:27:14;95050.84;;;8.38;100.00
11676;BME280;5894;42.768;23.404;2024-03-02T03:29:41;95056.88;;;8.39;100.00
11676;BME280;5894;42.768;23.404;2024-03-02T03:32:09;95060.91;;;8.45;100.00
11676;BME280;5894;42.768;23.404;2024-03-02T03:34:36;95059.84;;;8.46;100.00
11676;BME280;5894;42.768;23.404;2024-03-02T03:37:03;95052.75;;;8.46;100.00
11676;BME280;5894;42.768;23.404;2024-03-02T03:39:31;95054.41;;;8.42;100.00
11676;BME280;5894;42.768;23.404;2024-03-02T03:41:58;95064.13;;;8.42;100.00
11676;BME280;5894;42.768;23.404;2024-03-02T03:44:25;95054.34;;;8.34;100.00
11676;BME280;5894;42.768;23.404;2024-03-02T03:46:52;95050.06;;;8.24;100.00
11676;BME280;5894;42.768;23.404;2024-03-02T03:49:20;95046.97;;;8.22;100.00
11676;BME280;5894;42.768;23.404;2024-03-02T03:51:47;95047.09;;;8.17;100.00
11676;BME280;5894;42.768;23.404;2024-03-02T03:54:15;95045.34;;;8.13;100.00
11676;BME280;5894;42.768;23.404;2024-03-02T03:56:42;95049.25;;;8.15;100.00
11676;BME280;5894;42.768;23.404;2024-03-02T03:59:08;95049.06;;;8.11;100.00
11676;BME280;5894;42.768;23.404;2024-03-02T04:01:35;95044.56;;;8.12;100.00
11676;BME280;5894;42.768;23.404;2024-03-02T04:04:03;95045.19;;;8.09;100.00
11676;BME280;5894;42.768;23.404;2024-03-02T04:06:31;95050.31;;;8.14;100.00
11676;BME280;5894;42.768;23.404;2024-03-02T04:08:58;95048.59;;;8.09;100.00
11676;BME280;5894;42.768;23.404;2024-03-02T04:11:25;95050.91;;;8.11;100.00
11676;BME280;5894;42.768;23.404;2024-03-02T04:13:52;95047.19;;;8.12;100.00
11676;BME280;5894;42.768;23.404;2024-03-02T04:16:19;95039.50;;;8.16;100.00
11676;BME280;5894;42.768;23.404;2024-03-02T04:18:46;95048.28;;;8.11;100.00
11676;BME280;5894;42.768;23.404;2024-03-02T04:21:13;95048.28;;;8.11;100.00
11676;BME280;5894;42.768;23.404;2024-03-02T04:23:41;95045.84;;;8.15;100.00
11676;BME280;5894;42.768;23.404;2024-03-02T04:26:08;95007.94;;;7.85;100.00
11676;BME280;5894;42.768;23.404;2024-03-02T04:28:35;95057.41;;;8.14;100.00
11676;BME280;5894;42.768;23.404;2024-03-02T04:31:03;95054.69;;;8.19;100.00
11676;BME280;5894;42.768;23.404;2024-03-02T04:33:29;95050.06;;;8.24;100.00
11676;BME280;5894;42.768;23.404;2024-03-02T04:35:56;95050.94;;;8.33;100.00
11676;BME280;5894;42.768;23.404;2024-03-02T04:38:24;95010.34;;;8.17;100.00
11676;BME280;5894;42.768;23.404;2024-03-02T04:40:52;95045.28;;;8.40;100.00
11676;BME280;5894;42.768;23.404;2024-03-02T04:43:19;95061.69;;;8.45;100.00
11676;BME280;5894;42.768;23.404;2024-03-02T04:45:46;95068.22;;;8.48;100.00
11676;BME280;5894;42.768;23.404;2024-03-02T04:48:13;95052.78;;;8.55;100.00
11676;BME280;5894;42.768;23.404;2024-03-02T04:50:40;95062.88;;;8.62;100.00
11676;BME280;5894;42.768;23.404;2024-03-02T04:53:07;95059.31;;;8.58;100.00
11676;BME280;5894;42.768;23.404;2024-03-02T04:55:34;95057.94;;;8.60;100.00
11676;BME280;5894;42.768;23.404;2024-03-02T04:58:32;95069.91;;;8.53;100.00
11676;BME280;5894;42.768;23.404;2024-03-02T05:00:59;95062.66;;;8.50;100.00
11676;BME280;5894;42.768;23.404;2024-03-02T05:03:26;95063.00;;;8.34;100.00
11676;BME280;5894;42.768;23.404;2024-03-02T05:05:53;95063.50;;;8.23;100.00
11676;BME280;5894;42.768;23.404;2024-03-02T05:08:20;95073.75;;;8.10;100.00
11676;BME280;5894;42.768;23.404;2024-03-02T05:10:47;95067.84;;;8.05;100.00
11676;BME280;5894;42.768;23.404;2024-03-02T05:13:13;95074.31;;;7.99;100.00
11676;BME280;5894;42.768;23.404;2024-03-02T05:15:43;95074.09;;;7.95;100.00
11676;BME280;5894;42.768;23.404;2024-03-02T05:18:10;95080.13;;;7.96;100.00
11676;BME280;5894;42.768;23.404;2024-03-02T05:20:37;95082.47;;;7.97;100.00
11676;BME280;5894;42.768;23.404;2024-03-02T05:23:04;95080.00;;;8.01;100.00
11676;BME280;5894;42.768;23.404;2024-03-02T05:25:31;95079.13;;;8.05;100.00
11676;BME280;5894;42.768;23.404;2024-03-02T05:27:58;95076.88;;;8.13;100.00
11676;BME280;5894;42.768;23.404;2024-03-02T05:30:25;95088.34;;;8.17;100.00
11676;BME280;5894;42.768;23.404;2024-03-02T05:32:53;95080.94;;;8.19;100.00
11676;BME280;5894;42.768;23.404;2024-03-02T05:35:22;95093.06;;;8.28;100.00
11676;BME280;5894;42.768;23.404;2024-03-02T05:37:49;95086.44;;;8.31;100.00
11676;BME280;5894;42.768;23.404;2024-03-02T05:40:17;95095.41;;;8.30;100.00
11676;BME280;5894;42.768;23.404;2024-03-02T05:42:44;95099.78;;;8.34;100.00
11676;BME280;5894;42.768;23.404;2024-03-02T05:45:11;95103.69;;;8.37;100.00
11676;BME280;5894;42.768;23.404;2024-03-02T05:47:38;95107.44;;;8.31;100.00
11676;BME280;5894;42.768;23.404;2024-03-02T05:50:07;95109.03;;;8.32;100.00
11676;BME280;5894;42.768;23.404;2024-03-02T05:52:35;95109.31;;;8.30;100.00
11676;BME280;5894;42.768;23.404;2024-03-02T05:55:02;95111.47;;;8.28;100.00
11676;BME280;5894;42.768;23.404;2024-03-02T05:57:30;95115.25;;;8.36;100.00
11676;BME280;5894;42.768;23.404;2024-03-02T06:00:13;95121.34;;;8.45;100.00
11676;BME280;5894;42.768;23.404;2024-03-02T06:02:42;95115.81;;;8.46;100.00
11676;BME280;5894;42.768;23.404;2024-03-02T06:05:11;95120.63;;;8.53;100.00
11676;BME280;5894;42.768;23.404;2024-03-02T06:07:38;95118.31;;;8.52;100.00
11676;BME280;5894;42.768;23.404;2024-03-02T06:10:06;95117.34;;;8.48;100.00
11676;BME280;5894;42.768;23.404;2024-03-02T06:12:35;95118.44;;;8.46;100.00
11676;BME280;5894;42.768;23.404;2024-03-02T06:15:03;95121.16;;;8.41;100.00
11676;BME280;5894;42.768;23.404;2024-03-02T06:17:30;95116.03;;;8.36;100.00
11676;BME280;5894;42.768;23.404;2024-03-02T06:19:58;95130.63;;;8.29;100.00
11676;BME280;5894;42.768;23.404;2024-03-02T06:22:26;95124.91;;;8.27;100.00
11676;BME280;5894;42.768;23.404;2024-03-02T06:24:53;95118.66;;;8.23;100.00
11676;BME280;5894;42.768;23.404;2024-03-02T06:27:20;95127.16;;;8.20;100.00
11676;BME280;5894;42.768;23.404;2024-03-02T06:29:47;95128.03;;;8.15;100.00
11676;BME280;5894;42.768;23.404;2024-03-02T06:32:14;95125.28;;;8.20;100.00
11676;BME280;5894;42.768;23.404;2024-03-02T06:34:41;95140.59;;;8.18;100.00
11676;BME280;5894;42.768;23.404;2024-03-02T06:37:08;95119.56;;;8.18;100.00
11676;BME280;5894;42.768;23.404;2024-03-02T06:39:37;95131.16;;;8.17;100.00
11676;BME280;5894;42.768;23.404;2024-03-02T06:42:04;95129.59;;;8.16;100.00
11676;BME280;5894;42.768;23.404;2024-03-02T06:44:31;95129.31;;;8.18;100.00
11676;BME280;5894;42.768;23.404;2024-03-02T06:46:58;95131.16;;;8.17;100.00
11676;BME280;5894;42.768;23.404;2024-03-02T06:49:25;95129.31;;;8.18;100.00
11676;BME280;5894;42.768;23.404;2024-03-02T06:51:52;95112.59;;;8.00;100.00
11676;BME280;5894;42.768;23.404;2024-03-02T06:54:19;95136.09;;;8.19;100.00
11676;BME280;5894;42.768;23.404;2024-03-02T06:56:48;95134.25;;;8.19;100.00
11676;BME280;5894;42.768;23.404;2024-03-02T06:59:15;95137.66;;;8.20;100.00
11676;BME280;5894;42.768;23.404;2024-03-02T07:01:43;95136.09;;;8.19;100.00
11676;BME280;5894;42.768;23.404;2024-03-02T07:04:10;95136.09;;;8.19;100.00
11676;BME280;5894;42.768;23.404;2024-03-02T07:06:37;95142.72;;;8.16;100.00
11676;BME280;5894;42.768;23.404;2024-03-02T07:09:04;95146.63;;;8.19;100.00
11676;BME280;5894;42.768;23.404;2024-03-02T07:11:36;95142.13;;;8.19;100.00
11676;BME280;5894;42.768;23.404;2024-03-02T07:14:04;95138.13;;;8.22;100.00
11676;BME280;5894;42.768;23.404;2024-03-02T07:16:31;95145.22;;;8.21;100.00
11676;BME280;5894;42.768;23.404;2024-03-02T07:19:00;95137.84;;;8.23;100.00
11676;BME280;5894;42.768;23.404;2024-03-02T07:21:27;95095.41;;;7.94;100.00
11676;BME280;5894;42.768;23.404;2024-03-02T07:23:54;95157.50;;;8.26;100.00
11676;BME280;5894;42.768;23.404;2024-03-02T07:26:22;95146.09;;;8.30;100.00
11676;BME280;5894;42.768;23.404;2024-03-02T07:28:49;95143.78;;;8.29;100.00
11676;BME280;5894;42.768;23.404;2024-03-02T07:31:17;95143.28;;;8.27;100.00
11676;BME280;5894;42.768;23.404;2024-03-02T07:33:44;95151.34;;;8.30;100.00
11676;BME280;5894;42.768;23.404;2024-03-02T07:36:13;95154.00;;;8.30;100.00
11676;BME280;5894;42.768;23.404;2024-03-02T07:38:40;95079.88;;;7.84;100.00
11676;BME280;5894;42.768;23.404;2024-03-02T07:41:08;95158.06;;;8.36;100.00
11676;BME280;5894;42.768;23.404;2024-03-02T07:43:37;95156.22;;;8.37;100.00
11676;BME280;5894;42.768;23.404;2024-03-02T07:46:04;95162.31;;;8.46;100.00
11676;BME280;5894;42.768;23.404;2024-03-02T07:48:33;95155.22;;;8.46;100.00
11676;BME280;5894;42.768;23.404;2024-03-02T07:51:00;95156.78;;;8.48;100.00
11676;BME280;5894;42.768;23.404;2024-03-02T07:53:28;95162.53;;;8.50;100.00
11676;BME280;5894;42.768;23.404;2024-03-02T07:55:55;95164.53;;;8.53;100.00
11676;BME280;5894;42.768;23.404;2024-03-02T07:58:27;95173.59;;;8.60;100.00
11676;BME280;5894;42.768;23.404;2024-03-02T08:00:54;95165.56;;;8.65;100.00
11676;BME280;5894;42.768;23.404;2024-03-02T08:03:22;95165.84;;;8.64;100.00
11676;BME280;5894;42.768;23.404;2024-03-02T08:05:50;95177.03;;;8.69;100.00
11676;BME280;5894;42.768;23.404;2024-03-02T08:08:17;95163.34;;;8.59;100.00
11676;BME280;5894;42.768;23.404;2024-03-02T08:10:44;95168.94;;;8.79;100.00
11676;BME280;5894;42.768;23.404;2024-03-02T08:13:12;95176.69;;;8.84;100.00
11676;BME280;5894;42.768;23.404;2024-03-02T08:15:39;95164.59;;;8.83;100.00
11676;BME280;5894;42.768;23.404;2024-03-02T08:18:07;95129.34;;;8.62;100.00
11676;BME280;5894;42.768;23.404;2024-03-02T08:20:34;95174.88;;;8.94;100.00
11676;BME280;5894;42.768;23.404;2024-03-02T08:23:03;95176.34;;;9.00;100.00
11676;BME280;5894;42.768;23.404;2024-03-02T08:25:30;95183.63;;;9.03;100.00
11676;BME280;5894;42.768;23.404;2024-03-02T08:27:59;95178.72;;;9.10;100.00
11676;BME280;5894;42.768;23.404;2024-03-02T08:30:26;95146.72;;;8.94;100.00
11676;BME280;5894;42.768;23.404;2024-03-02T08:32:53;95175.53;;;9.22;100.00
11676;BME280;5894;42.768;23.404;2024-03-02T08:35:20;95176.84;;;9.33;100.00
11676;BME280;5894;42.768;23.404;2024-03-02T08:37:48;95175.13;;;9.37;100.00
11676;BME280;5894;42.768;23.404;2024-03-02T08:40:16;95172.25;;;9.47;100.00
11676;BME280;5894;42.768;23.404;2024-03-02T08:42:43;95173.94;;;9.43;100.00
11676;BME280;5894;42.768;23.404;2024-03-02T08:45:11;95173.78;;;9.48;100.00
11676;BME280;5894;42.768;23.404;2024-03-02T08:47:38;95172.41;;;9.50;100.00
11676;BME280;5894;42.768;23.404;2024-03-02T08:50:06;95152.69;;;9.39;100.00
11676;BME280;5894;42.768;23.404;2024-03-02T08:52:34;95163.75;;;9.50;100.00
11676;BME280;5894;42.768;23.404;2024-03-02T08:55:02;95173.53;;;9.58;100.00
11676;BME280;5894;42.768;23.404;2024-03-02T08:57:31;95173.78;;;9.48;100.00
11676;BME280;5894;42.768;23.404;2024-03-02T08:59:59;95183.53;;;9.47;100.00
11676;BME280;5894;42.768;23.404;2024-03-02T09:02:26;95169.91;;;9.45;100.00
11676;BME280;5894;42.768;23.404;2024-03-02T09:04:53;95176.94;;;9.58;100.00
11676;BME280;5894;42.768;23.404;2024-03-02T09:07:20;95183.94;;;9.63;100.00
11676;BME280;5894;42.768;23.404;2024-03-02T09:09:47;95181.59;;;9.62;100.00
11676;BME280;5894;42.768;23.404;2024-03-02T09:12:15;95168.81;;;9.46;100.00
11676;BME280;5894;42.768;23.404;2024-03-02T09:14:43;95180.41;;;9.37;100.00
11676;BME280;5894;42.768;23.404;2024-03-02T09:17:10;95173.53;;;9.27;100.00
11676;BME280;5894;42.768;23.404;2024-03-02T09:19:37;95183.00;;;9.28;100.00
11676;BME280;5894;42.768;23.404;2024-03-02T09:22:05;95185.03;;;9.31;100.00
11676;BME280;5894;42.768;23.404;2024-03-02T09:24:32;95187.47;;;9.28;100.00
11676;BME280;5894;42.768;23.404;2024-03-02T09:27:00;95182.22;;;9.28;100.00
11676;BME280;5894;42.768;23.404;2024-03-02T09:29:27;95189.84;;;9.38;100.00
11676;BME280;5894;42.768;23.404;2024-03-02T09:31:56;95188.81;;;9.47;100.00
11676;BME280;5894;42.768;23.404;2024-03-02T09:34:23;95189.28;;;9.49;100.00
11676;BME280;5894;42.768;23.404;2024-03-02T09:36:51;95184.97;;;9.53;100.00
11676;BME280;5894;42.768;23.404;2024-03-02T09:39:18;95186.53;;;9.54;100.00
11676;BME280;5894;42.768;23.404;2024-03-02T09:41:47;95201.13;;;9.69;100.00
11676;BME280;5894;42.768;23.404;2024-03-02T09:44:14;95196.84;;;9.73;100.00
11676;BME280;5894;42.768;23.404;2024-03-02T09:46:41;95185.84;;;9.80;100.00
11676;BME280;5894;42.768;23.404;2024-03-02T09:49:12;95201.81;;;9.83;100.00
11676;BME280;5894;42.768;23.404;2024-03-02T09:51:40;95204.00;;;9.90;100.00
11676;BME280;5894;42.768;23.404;2024-03-02T09:54:13;95195.31;;;9.89;100.00
11676;BME280;5894;42.768;23.404;2024-03-02T09:56:40;95198.13;;;9.93;100.00
11676;BME280;5894;42.768;23.404;2024-03-02T09:59:08;95202.16;;;9.99;100.00
11676;BME280;5894;42.768;23.404;2024-03-02T10:01:35;95205.88;;;9.98;100.00
11676;BME280;5894;42.768;23.404;2024-03-02T10:04:02;95197.56;;;10.05;100.00
11676;BME280;5894;42.768;23.404;2024-03-02T10:06:30;95182.63;;;9.91;100.00
11676;BME280;5894;42.768;23.404;2024-03-02T10:08:57;95199.06;;;9.97;100.00
11676;BME280;5894;42.768;23.404;2024-03-02T10:11:28;95200.66;;;10.07;100.00
11676;BME280;5894;42.768;23.404;2024-03-02T10:14:05;95200.66;;;10.07;100.00
11676;BME280;5894;42.768;23.404;2024-03-02T10:16:34;95193.97;;;10.01;100.00
11676;BME280;5894;42.768;23.404;2024-03-02T10:19:18;95174.16;;;10.03;100.00
11676;BME280;5894;42.768;23.404;2024-03-02T10:21:47;95152.09;;;9.90;100.00
11676;BME280;5894;42.768;23.404;2024-03-02T10:24:15;95192.34;;;10.22;100.00
11676;BME280;5894;42.768;23.404;2024-03-02T10:26:42;95194.50;;;10.20;100.00
11676;BME280;5894;42.768;23.404;2024-03-02T10:29:09;95189.72;;;10.30;100.00
11676;BME280;5894;42.768;23.404;2024-03-02T10:31:37;95183.84;;;10.34;100.00
11676;BME280;5894;42.768;23.404;2024-03-02T10:34:05;95195.47;;;10.33;100.00
11676;BME280;5894;42.768;23.404;2024-03-02T10:36:33;95194.22;;;10.30;100.00
11676;BME280;5894;42.768;23.404;2024-03-02T10:39:04;95192.34;;;10.22;100.00
11676;BME280;5894;42.768;23.404;2024-03-02T10:41:33;95186.09;;;10.09;100.00
11676;BME280;5894;42.768;23.404;2024-03-02T10:44:02;95193.19;;;10.00;100.00
11676;BME280;5894;42.768;23.404;2024-03-02T10:46:31;95192.09;;;10.01;100.00
11676;BME280;5894;42.768;23.404;2024-03-02T10:48:59;95187.91;;;10.00;100.00
11676;BME280;5894;42.768;23.404;2024-03-02T10:51:27;95184.38;;;10.05;100.00
11676;BME280;5894;42.768;23.404;2024-03-02T10:53:57;95161.25;;;9.93;100.00
11676;BME280;5894;42.768;23.404;2024-03-02T10:56:29;95180.69;;;10.14;100.00
11676;BME280;5894;42.768;23.404;2024-03-02T10:59:02;95179.47;;;10.20;100.00
11676;BME280;5894;42.768;23.404;2024-03-02T11:01:31;95178.34;;;10.13;100.00
11676;BME280;5894;42.768;23.404;2024-03-02T11:03:59;95180.25;;;10.21;100.00
11676;BME280;5894;42.768;23.404;2024-03-02T11:06:30;95170.34;;;10.35;100.00
11676;BME280;5894;42.768;23.404;2024-03-02T11:09:06;95181.34;;;10.28;100.00
11676;BME280;5894;42.768;23.404;2024-03-02T11:11:37;95179.31;;;10.17;100.00
11676;BME280;5894;42.768;23.404;2024-03-02T11:14:13;95170.66;;;10.25;100.00
11676;BME280;5894;42.768;23.404;2024-03-02T11:16:40;95174.97;;;10.21;100.00
11676;BME280;5894;42.768;23.404;2024-03-02T11:19:11;95168.94;;;10.20;100.00
11676;BME280;5894;42.768;23.404;2024-03-02T11:21:39;95167.81;;;10.13;100.00
11676;BME280;5894;42.768;23.404;2024-03-02T11:24:28;95163.78;;;10.15;100.00
11676;BME280;5894;42.768;23.404;2024-03-02T11:27:00;95166.59;;;10.19;100.00
11676;BME280;5894;42.768;23.404;2024-03-02T11:29:43;95142.34;;;9.91;100.00
11676;BME280;5894;42.768;23.404;2024-03-02T11:32:15;95167.16;;;10.07;100.00
11676;BME280;5894;42.768;23.404;2024-03-02T11:34:43;95160.00;;;9.90;100.00
11676;BME280;5894;42.768;23.404;2024-03-02T11:37:12;95168.09;;;10.03;100.00
11676;BME280;5894;42.768;23.404;2024-03-02T11:39:40;95160.97;;;10.03;100.00
11676;BME280;5894;42.768;23.404;2024-03-02T11:42:09;95166.72;;;10.14;100.00
11676;BME280;5894;42.768;23.404;2024-03-02T11:44:38;95161.16;;;10.15;100.00
11676;BME280;5894;42.768;23.404;2024-03-02T11:47:06;95165.03;;;10.18;100.00
11676;BME280;5894;42.768;23.404;2024-03-02T11:49:37;95165.03;;;10.18;100.00
11676;BME280;5894;42.768;23.404;2024-03-02T11:52:07;95133.97;;;9.98;100.00
11676;BME280;5894;42.768;23.404;2024-03-02T11:54:35;95158.50;;;10.07;100.00
11676;BME280;5894;42.768;23.404;2024-03-02T11:57:05;95150.00;;;10.18;100.00
11676;BME280;5894;42.768;23.404;2024-03-02T11:59:33;95106.56;;;9.90;100.00
11676;BME280;5894;42.768;23.404;2024-03-02T12:02:02;95157.31;;;10.39;100.00
11676;BME280;5894;42.768;23.404;2024-03-02T12:04:29;95168.34;;;10.41;100.00
11676;BME280;5894;42.768;23.404;2024-03-02T12:06:58;95160.91;;;10.43;100.00
11676;BME280;5894;42.768;23.404;2024-03-02T12:09:26;95157.00;;;10.32;100.00
11676;BME280;5894;42.768;23.404;2024-03-02T12:12:07;95110.75;;;10.00;100.00
11676;BME280;5894;42.768;23.404;2024-03-02T12:14:37;95158.56;;;10.33;100.00
11676;BME280;5894;42.768;23.404;2024-03-02T12:17:05;95167.72;;;10.26;100.00
11676;BME280;5894;42.768;23.404;2024-03-02T12:19:32;95158.25;;;10.43;100.00
11676;BME280;5894;42.768;23.404;2024-03-02T12:22:00;95159.50;;;10.45;100.00
11676;BME280;5894;42.768;23.404;2024-03-02T12:24:29;95159.97;;;10.47;100.00
11676;BME280;5894;42.768;23.404;2024-03-02T12:26:56;95162.16;;;10.54;100.00
11676;BME280;5894;42.768;23.404;2024-03-02T12:29:24;95166.66;;;10.45;100.00
11676;BME280;5894;42.768;23.404;2024-03-02T12:31:52;95158.72;;;10.36;100.00
11676;BME280;5894;42.768;23.404;2024-03-02T12:34:19;95154.72;;;10.47;100.00
11676;BME280;5894;42.768;23.404;2024-03-02T12:36:47;95160.28;;;10.54;100.00
11676;BME280;5894;42.768;23.404;2024-03-02T12:39:18;95140.13;;;10.50;100.00
11676;BME280;5894;42.768;23.404;2024-03-02T12:41:46;95152.22;;;10.68;100.00
11676;BME280;5894;42.768;23.404;2024-03-02T12:44:16;95130.34;;;10.59;100.00
11676;BME280;5894;42.768;23.404;2024-03-02T12:46:43;95163.06;;;10.75;100.00
11676;BME280;5894;42.768;23.404;2024-03-02T12:49:13;95162.28;;;10.83;100.00
11676;BME280;5894;42.768;23.404;2024-03-02T12:51:42;95163.06;;;10.92;100.00
11676;BME280;5894;42.768;23.404;2024-03-02T12:54:10;95163.66;;;11.07;100.00
11676;BME280;5894;42.768;23.404;2024-03-02T12:56:37;95163.03;;;11.01;100.00
11676;BME280;5894;42.768;23.404;2024-03-02T12:59:05;95119.81;;;10.68;100.00
11676;BME280;5894;42.768;23.404;2024-03-02T13:01:32;95172.81;;;11.00;100.00
11676;BME280;5894;42.768;23.404;2024-03-02T13:03:59;95166.94;;;10.95;100.00